Elk City, OK

7:32 PM CDT on August 01, 2014 (GMT -0500)
Clinton-Sherman (KCSM) Elev 1923 ft | 35.34 °N, 99.20 °W | Change Station

Current weather conditions updated 39 minutes ago

Clear
Clear
85 °F
Feels Like 84 °F
N
6
Wind Variable Wind from SE

Tomorrow is forecast to be Warmer than today.

Today
High -- | Low -- °F
--% Chance of Precip.
Yesterday
High -- | Low -- °F
Precip. -- in
6:46 AM 8:41 PM
Waxing Crescent, 30% visible
Pressure 30.01 in
Visibility 10.0 miles
Clouds Clear
Heat Index 84 °F
Dew Point 58 °F
Humidity 40%
Rainfall 0.00 in
Snow Depth Not available.
UV 2 out of 12
Pollen 6.00 out of 12
Air Quality Not available.
Flu Activity Not available.
METAR KCSM 012353Z 13005KT 10SM CLR 29/14 A3007 RMK AO2 SLP160 T02940144 10300 20267 58011

More Conditions Fewer Conditions

Pressure 30.01 in
Visibility 10.0 miles
Clouds Clear
Heat Index 84 °F
Dew Point 58 °F
Humidity 40%
Rainfall 0.00 in
Snow Depth Not available.
UV 2 out of 12
Pollen 6.00 out of 12
Air Quality Not available.
Flu Activity Not available.
METAR KCSM 012353Z 13005KT 10SM CLR 29/14 A3007 RMK AO2 SLP160 T02940144 10300 20267 58011

More Conditions Fewer Conditions

10-Day Weather Forecast

Almanac

Astronomy

Aug. 01, 2014 Rise Set
Actual Time 6:46 AM CDT 8:41 PM CDT
Civil Twilight 6:18 AM CDT 9:09 PM CDT
Nautical Twilight 5:44 AM CDT 9:42 PM CDT
Astronomical Twilight 5:08 AM CDT 10:19 PM CDT
Moon 11:58 AM CDT (8/1) 11:40 PM CDT (8/1)
Length of Visible Light 14h 50m
Length of Day
13h 54m
Tomorrow will be 1m 41s shorter.
Waxing Crescent, 30% of the Moon is Illuminated
Today
Waxing Crescent
Aug 3
First Quarter
Aug 10
Full
Aug 17
Last Quarter
Aug 25
New

Today's Extremes

State Highs State Lows

Community

WunderPhotos

Upload Photos

1,739,763 photos uploaded!

Nearby

Snow Depth

Station Depth Elevation
No new snow has been reported.

Earthquake Activity

City Distance Mag. Time & Date
Medford, Oklahoma 121 miles 4.3 9:46 PM CDT
2014-07-28
Cherokee, Oklahoma 107 miles 3.0 5:26 PM CDT
2014-07-28
Medford, Oklahoma 129 miles 2.9 3:39 PM CDT
2014-07-27
Perry, Oklahoma 124 miles 2.8 4:28 AM CDT
2014-07-27
Minimum magnitude displayed is 2.5.

Coastal Water Temperatures

Place Temperature
No Stations Reporting

Nearby Weather Stations

Station Location Temp. Heat Index Dew Point Humidity Wind Precip. Elev Updated Type
Western Oklahoma, Erick, OK 99.0 °F 104 °F 68 °F 36% South  at  0.0 mph 0.00 in / hr 1978 ft 7:32 PM CDT Rapid Fire

Show More Stations Show Fewer Stations